KBOI/BOI METAR and TAF weather

Enter ICAO airport designator
Station Type Date Time Source
KBOI METAR 2020/03/29 10:53 UTC NOAA

KBOI 291053Z 12010KT 10SM BKN070 OVC085 07/M03 A2995 RMK AO2 SLP141 T00671028


Station Type Date Time Source
KBOI Decoded METAR 2020/03/29 10:53 UTC NOAA

BOISE AIR TERMINAL, ID, United States (KBOI) 43-34N 116-14W 875M
Mar 29, 2020 - 06:53 AM EDT / 2020.03.29 1053 UTC
Wind: from the ESE (120 degrees) at 12 MPH (10 KT):0
Visibility: 10 mile(s):0
Sky conditions: overcast
Temperature: 44.1 F (6.7 C)
Dew Point: 27.0 F (-2.8 C)
Relative Humidity: 50%
Pressure (altimeter): 29.95 in. Hg (1014 hPa)
ob: KBOI 291053Z 12010KT 10SM BKN070 OVC085 07/M03 A2995 RMK AO2 SLP141 T00671028
cycle: 11

Station Type Date Time Source
KBOI TAF 2020/03/29 12:24 UTC NOAA

TAF KBOI 291121Z 2912/3012 13010KT P6SM BKN060
FM291500 13006KT P6SM VCSH BKN040 OVC050
FM292000 14010G20KT P6SM VCSH BKN050
FM300300 13006KT P6SM VCSH BKN060

Example: see airport list